Open Full Screen Window  High Contrast Mode
Wind Gusting 00 knots
07
December 16, 2017 4:10 AM EST
Weather Information
Wind Direction
  200 °
Wind Speed
  07 kt (8 mph)
Wind Gust
  00 kt (0 mph)
Altimeter
30.15 in
Visibility
10 SM
Temperature
00° C
32° F
Dewpoint
-06° C
21° F
Humidity
64%
1hr Rain Fall
00.00 in.
24hr Rain Fall
00.00 in.
Sky Condition
Overcast @ 4,900 ft
VFR

METAR KSYM 160910Z AUTO 20007KT 10SM OVC049 00/M06 A3015 RMK AO2

*Background is not an actual portrayal of the airport.